createdAt,value
2022-09-11T00:01:00.093Z,101441.22
2022-09-11T00:03:28.117Z,101445.50
2022-09-11T00:05:54.895Z,101441.69
2022-09-11T00:08:21.989Z,101451.44
2022-09-11T00:10:49.009Z,101447.78
2022-09-11T00:13:23.573Z,101446.22
2022-09-11T00:15:52.320Z,101456.28
2022-09-11T00:18:23.884Z,101454.22
2022-09-11T00:20:52.968Z,101444.44
2022-09-11T00:23:20.870Z,101447.22
2022-09-11T00:25:48.060Z,101451.06
2022-09-11T00:28:20.581Z,101454.53
2022-09-11T00:30:56.535Z,101461.81
2022-09-11T00:33:23.162Z,101465.72
2022-09-11T00:35:58.797Z,101463.50
2022-09-11T00:38:28.199Z,101463.00
2022-09-11T00:40:56.576Z,101464.34
2022-09-11T00:43:23.296Z,101464.19
2022-09-11T00:45:57.555Z,101470.28
2022-09-11T00:48:26.775Z,101466.44
2022-09-11T00:50:54.764Z,101465.50
2022-09-11T00:53:25.067Z,101468.47
2022-09-11T00:55:55.592Z,101463.09
2022-09-11T00:58:27.938Z,101469.63
2022-09-11T01:00:56.544Z,101469.13
2022-09-11T01:03:25.542Z,101472.47
2022-09-11T01:05:54.708Z,101467.56
2022-09-11T01:08:22.754Z,101469.88
2022-09-11T01:11:07.915Z,101471.25
2022-09-11T01:13:59.332Z,101471.25
2022-09-11T01:16:35.610Z,101472.25
2022-09-11T01:19:37.197Z,101459.66
2022-09-11T01:22:03.652Z,101466.56
2022-09-11T01:24:53.385Z,101471.59
2022-09-11T01:27:39.803Z,101468.44
2022-09-11T01:30:11.913Z,101463.41
2022-09-11T01:32:50.510Z,101467.97
2022-09-11T01:35:44.236Z,101464.13
2022-09-11T01:38:22.871Z,101462.19
2022-09-11T01:41:07.859Z,101465.56
2022-09-11T01:43:41.376Z,101474.13
2022-09-11T01:46:09.235Z,101475.44
2022-09-11T01:48:45.504Z,101482.06
2022-09-11T01:51:18.427Z,101487.91
2022-09-11T01:53:50.339Z,101487.28
2022-09-11T01:56:30.117Z,101489.75
2022-09-11T01:59:01.742Z,101486.06
2022-09-11T02:01:32.661Z,101499.97
2022-09-11T02:04:11.821Z,101491.38
2022-09-11T02:06:50.449Z,101492.25
2022-09-11T02:09:21.906Z,101489.41
2022-09-11T02:11:51.895Z,101491.28
2022-09-11T02:14:30.106Z,101491.09
2022-09-11T02:17:15.460Z,101495.97
2022-09-11T02:19:42.126Z,101499.41
2022-09-11T02:22:08.881Z,101501.09
2022-09-11T02:24:35.589Z,101503.69
2022-09-11T02:27:05.970Z,101511.22
2022-09-11T02:29:33.426Z,101506.56
2022-09-11T02:32:01.320Z,101505.25
2022-09-11T02:34:32.772Z,101510.50
2022-09-11T02:37:21.306Z,101506.56
2022-09-11T02:40:07.544Z,101507.75
2022-09-11T02:42:43.614Z,101519.19
2022-09-11T02:45:48.119Z,101509.50
2022-09-11T02:48:30.011Z,101514.81
2022-09-11T02:51:07.670Z,101509.22
2022-09-11T02:53:52.598Z,101504.41
2022-09-11T02:56:44.000Z,101508.38
2022-09-11T02:59:24.511Z,101507.44
2022-09-11T03:01:56.553Z,101513.09
2022-09-11T03:04:24.752Z,101513.94
2022-09-11T03:06:52.885Z,101510.34
2022-09-11T03:09:20.364Z,101511.81
2022-09-11T03:11:47.266Z,101509.19
2022-09-11T03:14:14.461Z,101510.88
2022-09-11T03:16:41.647Z,101514.09
2022-09-11T03:19:08.523Z,101523.16
2022-09-11T03:21:35.295Z,101518.16
2022-09-11T03:24:02.552Z,101511.13
2022-09-11T03:26:29.699Z,101524.34
2022-09-11T03:28:56.291Z,101523.63
2022-09-11T03:31:22.955Z,101526.84
2022-09-11T03:33:49.600Z,101526.84
2022-09-11T03:36:16.205Z,101519.94
2022-09-11T03:38:42.698Z,101516.50
2022-09-11T03:41:09.617Z,101516.38
2022-09-11T03:43:36.192Z,101517.81
2022-09-11T03:46:03.263Z,101513.03
2022-09-11T03:48:29.828Z,101515.66
2022-09-11T03:50:56.494Z,101510.78
2022-09-11T03:53:23.035Z,101514.22
2022-09-11T03:55:52.474Z,101514.69
2022-09-11T03:58:19.479Z,101513.03
2022-09-11T04:00:47.539Z,101514.59
2022-09-11T04:03:17.958Z,101522.19
2022-09-11T04:05:57.254Z,101533.16
2022-09-11T04:08:23.777Z,101530.66
2022-09-11T04:10:57.106Z,101534.22
2022-09-11T04:13:32.165Z,101534.25
2022-09-11T04:16:11.608Z,101539.94
2022-09-11T04:18:39.843Z,101557.91
2022-09-11T04:21:08.932Z,101550.19
2022-09-11T04:23:36.247Z,101553.41
2022-09-11T04:26:04.129Z,101553.66
2022-09-11T04:28:31.680Z,101562.22
2022-09-11T04:31:04.472Z,101558.78
2022-09-11T04:33:31.236Z,101564.84
2022-09-11T04:35:57.832Z,101564.50
2022-09-11T04:38:24.754Z,101573.66
2022-09-11T04:40:51.464Z,101573.53
2022-09-11T04:43:18.015Z,101581.28
2022-09-11T04:45:44.632Z,101581.88
2022-09-11T04:48:11.159Z,101579.13
2022-09-11T04:50:37.712Z,101586.03
2022-09-11T04:53:04.407Z,101580.34
2022-09-11T04:55:30.925Z,101582.13
2022-09-11T04:57:57.430Z,101594.03
2022-09-11T05:00:25.149Z,101585.94
2022-09-11T05:02:54.584Z,101595.13
2022-09-11T05:05:21.279Z,101597.84
2022-09-11T05:07:50.816Z,101596.06
2022-09-11T05:10:17.408Z,101605.84
2022-09-11T05:12:43.929Z,101601.44
2022-09-11T05:15:11.028Z,101608.22
2022-09-11T05:17:39.019Z,101604.66
2022-09-11T05:20:11.210Z,101610.34
2022-09-11T05:22:38.369Z,101604.91
2022-09-11T05:25:05.173Z,101617.63
2022-09-11T05:27:31.677Z,101617.16
2022-09-11T05:29:58.190Z,101612.88
2022-09-11T05:32:24.664Z,101609.78
2022-09-11T05:34:51.455Z,101610.25
2022-09-11T05:37:17.984Z,101616.09
2022-09-11T05:39:44.557Z,101613.94
2022-09-11T05:42:11.831Z,101612.03
2022-09-11T05:44:38.426Z,101611.94
2022-09-11T05:47:05.105Z,101618.22
2022-09-11T05:49:31.696Z,101612.53
2022-09-11T05:51:58.193Z,101620.41
2022-09-11T05:54:25.399Z,101622.09
2022-09-11T05:56:51.914Z,101634.47
2022-09-11T05:59:20.609Z,101643.28
2022-09-11T06:01:47.984Z,101638.28
2022-09-11T06:04:14.630Z,101645.06
2022-09-11T06:06:41.218Z,101645.69
2022-09-11T06:09:10.879Z,101649.97
2022-09-11T06:11:37.376Z,101650.31
2022-09-11T06:14:03.862Z,101646.50
2022-09-11T06:16:31.723Z,101654.03
2022-09-11T06:18:58.540Z,101651.41
2022-09-11T06:21:26.847Z,101658.66
2022-09-11T06:23:53.886Z,101661.53
2022-09-11T06:26:23.176Z,101671.19
2022-09-11T06:28:51.016Z,101667.25
2022-09-11T06:31:20.799Z,101674.66
2022-09-11T06:33:48.328Z,101670.13
2022-09-11T06:36:17.137Z,101675.47
2022-09-11T06:38:44.709Z,101676.06
2022-09-11T06:41:14.877Z,101677.03
2022-09-11T06:43:42.287Z,101670.59
2022-09-11T06:46:14.614Z,101679.19
2022-09-11T06:48:43.126Z,101675.00
2022-09-11T06:51:18.175Z,101667.22
2022-09-11T06:53:47.506Z,101669.63
2022-09-11T06:56:17.844Z,101672.72
2022-09-11T06:58:46.085Z,101673.97
2022-09-11T07:01:18.497Z,101661.38
2022-09-11T07:03:46.969Z,101676.72
2022-09-11T07:06:15.554Z,101677.44
2022-09-11T07:08:42.104Z,101683.53
2022-09-11T07:11:10.058Z,101687.09
2022-09-11T07:13:38.214Z,101679.09
2022-09-11T07:16:08.161Z,101687.91
2022-09-11T07:18:40.060Z,101687.44
2022-09-11T07:21:11.651Z,101681.25
2022-09-11T07:23:39.494Z,101686.69
2022-09-11T07:26:08.954Z,101685.16
2022-09-11T07:28:37.660Z,101695.28
2022-09-11T07:31:18.715Z,101685.47
2022-09-11T07:33:48.884Z,101689.53
2022-09-11T07:36:23.872Z,101686.78
2022-09-11T07:38:51.265Z,101691.03
2022-09-11T07:41:21.480Z,101693.69
2022-09-11T07:43:55.250Z,101693.72
2022-09-11T07:46:22.341Z,101706.69
2022-09-11T07:48:48.888Z,101702.94
2022-09-11T07:51:17.365Z,101708.88
2022-09-11T07:53:46.269Z,101717.84
2022-09-11T07:56:18.522Z,101723.38
2022-09-11T07:58:45.634Z,101719.63
2022-09-11T08:01:20.586Z,101723.28
2022-09-11T08:03:47.256Z,101718.13
2022-09-11T08:06:21.424Z,101713.41
2022-09-11T08:08:52.459Z,101723.88
2022-09-11T08:11:19.795Z,101722.91
2022-09-11T08:13:51.520Z,101717.88
2022-09-11T08:16:19.672Z,101724.38
2022-09-11T08:18:46.492Z,101727.75
2022-09-11T08:21:13.345Z,101734.25
2022-09-11T08:23:42.125Z,101729.41
2022-09-11T08:26:23.693Z,101742.56
2022-09-11T08:28:52.752Z,101741.75
2022-09-11T08:31:22.084Z,101736.88
2022-09-11T08:33:49.361Z,101732.28
2022-09-11T08:36:15.988Z,101734.88
2022-09-11T08:38:43.943Z,101741.13
2022-09-11T08:41:11.222Z,101744.03
2022-09-11T08:43:56.643Z,101748.38
2022-09-11T08:46:33.847Z,101750.69
2022-09-11T08:49:25.452Z,101757.91
2022-09-11T08:51:55.173Z,101752.22
2022-09-11T08:54:33.540Z,101750.31
2022-09-11T08:57:38.726Z,101753.22
2022-09-11T09:00:19.957Z,101754.50
2022-09-11T09:03:07.863Z,101759.53
2022-09-11T09:05:42.992Z,101753.13
2022-09-11T09:08:35.118Z,101761.78
2022-09-11T09:11:20.539Z,101754.91
2022-09-11T09:13:56.114Z,101753.59
2022-09-11T09:16:45.477Z,101748.63
2022-09-11T09:19:20.211Z,101751.91
2022-09-11T09:21:59.778Z,101754.75
2022-09-11T09:24:30.970Z,101751.84
2022-09-11T09:26:57.611Z,101753.28
2022-09-11T09:29:30.561Z,101758.88
2022-09-11T09:32:06.524Z,101755.53
2022-09-11T09:34:37.461Z,101759.19
2022-09-11T09:37:15.190Z,101754.31
2022-09-11T09:39:42.119Z,101757.28
2022-09-11T09:42:33.108Z,101750.97
2022-09-11T09:45:14.556Z,101758.31
2022-09-11T09:47:47.850Z,101755.13
2022-09-11T09:50:28.555Z,101757.94
2022-09-11T09:53:10.640Z,101755.84
2022-09-11T09:55:40.467Z,101751.56
2022-09-11T09:58:09.864Z,101753.38
2022-09-11T10:00:39.650Z,101745.59
2022-09-11T10:03:22.176Z,101752.19
2022-09-11T10:05:51.411Z,101748.94
2022-09-11T10:08:33.459Z,101755.84
2022-09-11T10:11:08.505Z,101755.00
2022-09-11T10:13:40.461Z,101763.78
2022-09-11T10:16:21.130Z,101761.53
2022-09-11T10:18:47.705Z,101764.47
2022-09-11T10:21:23.016Z,101760.56
2022-09-11T10:23:56.945Z,101756.09
2022-09-11T10:26:38.252Z,101757.00
2022-09-11T10:29:15.542Z,101758.75
2022-09-11T10:31:49.887Z,101762.72
2022-09-11T10:34:22.436Z,101759.78
2022-09-11T10:36:53.067Z,101773.91
2022-09-11T10:39:21.229Z,101767.78
2022-09-11T10:41:51.633Z,101766.63
2022-09-11T10:44:18.539Z,101762.84
2022-09-11T10:46:46.102Z,101768.09
2022-09-11T10:49:23.455Z,101772.25
2022-09-11T10:52:19.254Z,101762.25
2022-09-11T10:54:54.998Z,101765.25
2022-09-11T10:57:28.356Z,101770.78
2022-09-11T10:59:57.953Z,101761.97
2022-09-11T11:02:31.790Z,101778.25
2022-09-11T11:05:03.166Z,101764.22
2022-09-11T11:08:00.793Z,101774.72
2022-09-11T11:10:40.639Z,101771.16
2022-09-11T11:13:13.422Z,101773.34
2022-09-11T11:16:20.273Z,101775.00
2022-09-11T11:19:11.565Z,101770.34
2022-09-11T11:21:56.954Z,101771.97
2022-09-11T11:24:38.697Z,101774.22
2022-09-11T11:27:17.210Z,101779.19
2022-09-11T11:29:50.712Z,101763.41
2022-09-11T11:32:39.467Z,101768.09
2022-09-11T11:35:23.367Z,101773.34
2022-09-11T11:37:53.908Z,101768.31
2022-09-11T11:40:40.792Z,101782.69
2022-09-11T11:43:11.778Z,101780.72
2022-09-11T11:45:41.506Z,101771.25
2022-09-11T11:48:25.422Z,101773.75
2022-09-11T11:51:00.961Z,101775.41
2022-09-11T11:53:40.573Z,101771.53
2022-09-11T11:56:28.858Z,101779.28
2022-09-11T11:59:14.097Z,101777.38
2022-09-11T12:02:03.218Z,101780.44
2022-09-11T12:04:47.001Z,101783.19
2022-09-11T12:07:15.406Z,101783.50
2022-09-11T12:09:47.336Z,101771.63
2022-09-11T12:12:16.557Z,101776.09
2022-09-11T12:14:51.587Z,101774.97
2022-09-11T12:17:44.727Z,101779.13
2022-09-11T12:20:29.936Z,101771.13
2022-09-11T12:23:04.399Z,101776.38
2022-09-11T12:25:35.507Z,101774.72
2022-09-11T12:28:22.653Z,101781.13
2022-09-11T12:30:58.839Z,101782.22
2022-09-11T12:33:40.805Z,101766.72
2022-09-11T12:36:18.886Z,101776.41
2022-09-11T12:38:49.239Z,101778.38
2022-09-11T12:41:22.907Z,101772.81
2022-09-11T12:43:50.298Z,101775.56
2022-09-11T12:46:23.179Z,101779.97
2022-09-11T12:49:18.089Z,101769.38
2022-09-11T12:51:49.962Z,101773.28
2022-09-11T12:54:24.942Z,101767.75
2022-09-11T12:57:02.502Z,101770.53
2022-09-11T12:59:39.322Z,101773.34
2022-09-11T13:02:25.750Z,101775.03
2022-09-11T13:04:53.775Z,101765.88
2022-09-11T13:07:46.658Z,101767.28
2022-09-11T13:10:37.139Z,101769.78
2022-09-11T13:13:35.799Z,101761.75
2022-09-11T13:16:19.292Z,101769.22
2022-09-11T13:18:46.066Z,101762.03
2022-09-11T13:21:15.685Z,101761.75
2022-09-11T13:23:43.165Z,101764.22
2022-09-11T13:26:18.249Z,101759.00
2022-09-11T13:28:47.919Z,101756.22
2022-09-11T13:31:19.633Z,101755.38
2022-09-11T13:33:53.074Z,101750.41
2022-09-11T13:36:24.218Z,101744.03
2022-09-11T13:38:56.161Z,101749.00
2022-09-11T13:41:32.696Z,101749.00
2022-09-11T13:44:01.291Z,101748.16
2022-09-11T13:46:31.682Z,101739.88
2022-09-11T13:49:10.939Z,101748.16
2022-09-11T13:51:43.673Z,101743.44
2022-09-11T13:54:32.948Z,101735.91
2022-09-11T13:57:03.124Z,101728.97
2022-09-11T13:59:50.398Z,101735.16
2022-09-11T14:02:24.423Z,101740.97
2022-09-11T14:04:53.018Z,101747.28
2022-09-11T14:07:26.472Z,101748.44
2022-09-11T14:10:18.234Z,101746.22
2022-09-11T14:12:58.733Z,101749.28
2022-09-11T14:15:33.794Z,101732.09
2022-09-11T14:18:06.730Z,101733.19
2022-09-11T14:20:33.566Z,101745.41
2022-09-11T14:23:05.730Z,101735.94
2022-09-11T14:25:34.110Z,101734.56
2022-09-11T14:28:00.752Z,101732.84
2022-09-11T14:30:28.249Z,101729.81
2022-09-11T14:33:16.922Z,101727.84
2022-09-11T14:35:45.958Z,101730.78
2022-09-11T14:38:14.446Z,101723.31
2022-09-11T14:40:50.237Z,101728.34
2022-09-11T14:43:24.317Z,101733.91
2022-09-11T14:45:51.506Z,101724.47
2022-09-11T14:48:18.862Z,101721.47
2022-09-11T14:50:46.585Z,101727.00
2022-09-11T14:53:18.812Z,101730.31
2022-09-11T14:55:45.398Z,101724.81
2022-09-11T14:58:11.930Z,101731.19
2022-09-11T15:00:38.490Z,101723.94
2022-09-11T15:03:05.073Z,101728.44
2022-09-11T15:05:32.791Z,101721.22
2022-09-11T15:08:00.465Z,101723.44
2022-09-11T15:10:27.514Z,101722.94
2022-09-11T15:12:56.043Z,101725.72
2022-09-11T15:15:22.784Z,101725.16
2022-09-11T15:17:49.481Z,101718.50
2022-09-11T15:20:16.462Z,101725.72
2022-09-11T15:22:43.222Z,101717.94
2022-09-11T15:25:10.166Z,101722.09
2022-09-11T15:27:36.825Z,101716.31
2022-09-11T15:30:04.651Z,101707.47
2022-09-11T15:32:31.514Z,101706.91
2022-09-11T15:34:58.287Z,101709.97
2022-09-11T15:37:25.289Z,101712.47
2022-09-11T15:39:51.819Z,101713.59
2022-09-11T15:42:18.939Z,101712.75
2022-09-11T15:44:46.277Z,101716.63
2022-09-11T15:47:13.738Z,101717.47
2022-09-11T15:49:42.388Z,101713.03
2022-09-11T15:52:08.939Z,101714.16
2022-09-11T15:54:35.693Z,101719.66
2022-09-11T15:57:02.308Z,101710.28
2022-09-11T15:59:28.860Z,101710.28
2022-09-11T16:01:55.752Z,101703.34
2022-09-11T16:04:27.546Z,101711.31
2022-09-11T16:06:55.238Z,101703.03
2022-09-11T16:09:26.826Z,101707.41
2022-09-11T16:11:54.741Z,101708.22
2022-09-11T16:14:27.355Z,101713.94
2022-09-11T16:16:56.071Z,101716.72
2022-09-11T16:19:27.539Z,101713.88
2022-09-11T16:21:56.562Z,101717.72
2022-09-11T16:24:25.568Z,101719.88
2022-09-11T16:26:55.829Z,101708.84
2022-09-11T16:29:24.039Z,101715.94
2022-09-11T16:31:50.651Z,101706.91
2022-09-11T16:34:20.159Z,101709.94
2022-09-11T16:36:46.893Z,101704.31
2022-09-11T16:39:16.213Z,101696.13
2022-09-11T16:41:43.421Z,101696.00
2022-09-11T16:44:13.686Z,101705.97
2022-09-11T16:46:42.334Z,101695.13
2022-09-11T16:49:15.462Z,101702.22
2022-09-11T16:51:43.031Z,101699.75
2022-09-11T16:54:09.582Z,101704.13
2022-09-11T16:56:36.208Z,101696.41
2022-09-11T16:59:03.189Z,101689.78
2022-09-11T17:01:29.743Z,101692.56
2022-09-11T17:03:57.817Z,101695.03
2022-09-11T17:06:29.980Z,101688.50
2022-09-11T17:08:59.751Z,101684.28
2022-09-11T17:11:26.782Z,101681.75
2022-09-11T17:13:53.573Z,101687.06
2022-09-11T17:16:23.784Z,101688.25
2022-09-11T17:18:53.968Z,101697.63
2022-09-11T17:21:24.166Z,101695.97
2022-09-11T17:23:52.600Z,101698.66
2022-09-11T17:26:19.365Z,101693.94
2022-09-11T17:28:47.778Z,101701.38
2022-09-11T17:31:15.973Z,101696.34
2022-09-11T17:33:43.650Z,101695.72
2022-09-11T17:36:12.329Z,101705.59
2022-09-11T17:38:40.447Z,101705.53
2022-09-11T17:41:09.290Z,101694.47
2022-09-11T17:43:37.427Z,101695.09
2022-09-11T17:46:12.162Z,101698.13
2022-09-11T17:48:39.784Z,101699.75
2022-09-11T17:51:12.540Z,101692.44
2022-09-11T17:53:41.562Z,101705.91
2022-09-11T17:56:11.171Z,101704.25
2022-09-11T17:58:38.398Z,101707.00
2022-09-11T18:01:06.262Z,101706.00
2022-09-11T18:03:34.467Z,101704.53
2022-09-11T18:06:03.185Z,101706.59
2022-09-11T18:08:33.315Z,101708.72
2022-09-11T18:11:01.238Z,101715.03
2022-09-11T18:13:31.980Z,101708.63
2022-09-11T18:15:58.668Z,101705.72
2022-09-11T18:18:25.646Z,101707.72
2022-09-11T18:20:56.422Z,101712.00
2022-09-11T18:23:24.209Z,101715.06
2022-09-11T18:25:51.609Z,101715.91
2022-09-11T18:28:20.050Z,101718.72
2022-09-11T18:30:47.545Z,101718.53
2022-09-11T18:33:16.773Z,101714.59
2022-09-11T18:35:44.254Z,101722.06
2022-09-11T18:38:11.002Z,101725.78
2022-09-11T18:40:37.488Z,101720.34
2022-09-11T18:43:06.342Z,101725.13
2022-09-11T18:45:35.283Z,101721.91
2022-09-11T18:48:02.355Z,101729.69
2022-09-11T18:50:28.952Z,101731.38
2022-09-11T18:52:57.078Z,101728.75
2022-09-11T18:55:24.365Z,101724.72
2022-09-11T18:57:51.680Z,101723.97
2022-09-11T19:00:19.376Z,101730.09
2022-09-11T19:02:50.364Z,101726.50
2022-09-11T19:05:17.689Z,101732.50
2022-09-11T19:07:47.564Z,101721.97
2022-09-11T19:10:16.137Z,101726.28
2022-09-11T19:12:43.250Z,101729.25
2022-09-11T19:15:11.354Z,101729.88
2022-09-11T19:17:38.256Z,101731.31
2022-09-11T19:20:08.419Z,101733.19
2022-09-11T19:22:35.625Z,101735.56
2022-09-11T19:25:02.635Z,101738.19
2022-09-11T19:27:31.705Z,101743.22
2022-09-11T19:30:00.398Z,101741.88
2022-09-11T19:32:28.897Z,101742.19
2022-09-11T19:34:56.082Z,101740.41
2022-09-11T19:37:23.757Z,101737.28
2022-09-11T19:39:54.074Z,101733.84
2022-09-11T19:42:20.973Z,101741.06
2022-09-11T19:44:48.112Z,101737.63
2022-09-11T19:47:14.696Z,101738.81
2022-09-11T19:49:41.202Z,101747.19
2022-09-11T19:52:08.278Z,101740.66
2022-09-11T19:54:35.438Z,101736.44
2022-09-11T19:57:02.605Z,101744.28
2022-09-11T19:59:29.265Z,101747.28
2022-09-11T20:01:55.890Z,101749.41
2022-09-11T20:04:22.712Z,101749.88
2022-09-11T20:09:31.905Z,101750.72
2022-09-11T20:12:00.615Z,101751.66
2022-09-11T20:14:27.435Z,101753.91
2022-09-11T20:16:53.967Z,101757.97
2022-09-11T20:19:20.624Z,101762.94
2022-09-11T20:21:47.167Z,101760.28
2022-09-11T20:24:14.958Z,101766.91
2022-09-11T20:26:41.492Z,101753.91
2022-09-11T20:29:12.553Z,101775.91
2022-09-11T20:31:46.858Z,101769.22
2022-09-11T20:34:18.560Z,101767.56
2022-09-11T20:36:46.259Z,101769.28
2022-09-11T20:39:16.046Z,101767.63
2022-09-11T20:41:42.913Z,101766.41
2022-09-11T20:44:09.960Z,101767.94
2022-09-11T20:46:36.626Z,101761.47
2022-09-11T20:49:04.446Z,101765.75
2022-09-11T20:51:32.559Z,101757.00
2022-09-11T20:54:00.596Z,101759.28
2022-09-11T20:56:28.073Z,101762.72
2022-09-11T20:58:54.879Z,101757.13
2022-09-11T21:01:23.163Z,101762.28
2022-09-11T21:03:57.143Z,101754.81
2022-09-11T21:06:27.515Z,101751.47
2022-09-11T21:08:55.973Z,101751.06
2022-09-11T21:11:23.422Z,101752.38
2022-09-11T21:13:50.820Z,101748.41
2022-09-11T21:16:19.915Z,101753.41
2022-09-11T21:18:52.134Z,101746.13
2022-09-11T21:21:19.654Z,101744.84
2022-09-11T21:23:46.578Z,101746.56
2022-09-11T21:26:15.918Z,101742.28
2022-09-11T21:28:42.947Z,101741.66
2022-09-11T21:31:13.429Z,101745.31
2022-09-11T21:33:41.338Z,101739.94
2022-09-11T21:36:08.008Z,101740.19
2022-09-11T21:38:34.570Z,101730.78
2022-09-11T21:41:04.487Z,101735.28
2022-09-11T21:43:31.623Z,101733.41
2022-09-11T21:45:58.732Z,101726.63
2022-09-11T21:48:25.685Z,101719.94
2022-09-11T21:50:52.628Z,101717.66
2022-09-11T21:53:19.929Z,101727.00
2022-09-11T21:55:48.676Z,101718.84
2022-09-11T21:58:17.670Z,101719.97
2022-09-11T22:00:44.396Z,101722.28
2022-09-11T22:03:12.315Z,101711.75
2022-09-11T22:05:44.206Z,101720.66
2022-09-11T22:08:12.314Z,101716.94
2022-09-11T22:10:48.159Z,101722.00
2022-09-11T22:13:15.471Z,101722.44
2022-09-11T22:15:43.298Z,101720.19
2022-09-11T22:18:09.974Z,101725.03
2022-09-11T22:20:37.689Z,101724.81
2022-09-11T22:23:04.409Z,101718.66
2022-09-11T22:25:30.964Z,101718.84
2022-09-11T22:27:57.677Z,101714.66
2022-09-11T22:30:24.224Z,101721.44
2022-09-11T22:32:51.274Z,101723.59
2022-09-11T22:35:17.826Z,101716.94
2022-09-11T22:37:44.336Z,101716.13
2022-09-11T22:40:10.973Z,101722.63
2022-09-11T22:42:37.551Z,101720.34
2022-09-11T22:45:04.409Z,101723.50
2022-09-11T22:47:30.908Z,101728.53
2022-09-11T22:49:57.427Z,101720.56
2022-09-11T22:52:24.071Z,101718.69
2022-09-11T22:54:50.640Z,101720.16
2022-09-11T22:57:17.245Z,101713.25
2022-09-11T22:59:45.361Z,101713.84
2022-09-11T23:02:13.488Z,101714.75
2022-09-11T23:04:40.082Z,101710.13
2022-09-11T23:07:15.971Z,101709.28
2022-09-11T23:09:43.855Z,101708.47
2022-09-11T23:12:10.758Z,101712.44
2022-09-11T23:14:37.367Z,101716.19
2022-09-11T23:17:04.034Z,101715.78
2022-09-11T23:19:31.571Z,101716.41
2022-09-11T23:21:58.097Z,101706.38
2022-09-11T23:24:24.599Z,101703.25
2022-09-11T23:26:51.096Z,101706.38
2022-09-11T23:29:17.655Z,101708.06
2022-09-11T23:31:45.091Z,101701.38
2022-09-11T23:34:16.077Z,101705.19
2022-09-11T23:36:43.417Z,101703.94
2022-09-11T23:39:10.140Z,101706.25
2022-09-11T23:41:36.634Z,101696.41
2022-09-11T23:44:03.957Z,101701.84
2022-09-11T23:46:30.504Z,101701.66
2022-09-11T23:48:57.064Z,101708.38
2022-09-11T23:51:23.982Z,101714.25
2022-09-11T23:53:51.806Z,101711.69
2022-09-11T23:56:19.108Z,101702.88
2022-09-11T23:58:45.745Z,101701.44
